Overview Statistics Trail Chart Weather Telemetry Raw packets
 

This is the latest recevied weather packets stored in our database for station/object DJ2KUA-6. If no packets are shown the sender has not sent any weather packets the latest 10 day(s).

<< 19 20 21 22 23 24 25 >>
Time Temp. Humidity Pressure Rain* Wind** Luminosity Snow
1787997036 23.33° C 61% 1068 hPa 0 mm - - -
1787995898 23.33° C 61% 1068 hPa 0 mm - - -
1787994755 23.33° C 62% 1069 hPa 0 mm - - -
1787993617 22.78° C 64% 1069 hPa 0 mm - - -
1787992479 22.22° C 65% 1069 hPa 0 mm - - -
1787991336 21.67° C 67% 1069 hPa 0 mm - - -
1787990196 21.11° C 69% 1069 hPa 0 mm - - -
1787987916 20° C 73% 1069 hPa 0 mm - - -
1787986775 18.89° C 78% 1069 hPa 0 mm - - -
1787985636 17.78° C 81% 1069 hPa 0 mm - - -
1787984528 16.67° C 84% 1068 hPa 0 mm - - -
1787984496 16.67° C 84% 1068 hPa 0 mm - - -
1787983357 16.11° C 85% 1069 hPa 0 mm - - -
1787982216 15.56° C 85% 1069 hPa 0 mm - - -
1787981077 15° C 85% 1069 hPa 0 mm - - -
1787979935 15° C 84% 1069 hPa 0 mm - - -
1787978795 15° C 83% 1068 hPa 0 mm - - -
1787977656 15.56° C 83% 1068 hPa 0 mm - - -
1787976515 15.56° C 82% 1068 hPa 0 mm - - -
1787975379 16.11° C 81% 1068 hPa 0 mm - - -
1787973096 16.67° C 80% 1068 hPa 0 mm - - -
1787971956 16.67° C 80% 1068 hPa 0 mm - - -
1787969676 17.22° C 79% 1068 hPa 0 mm - - -
1787968535 17.22° C 79% 1068 hPa 0 mm - - -
1787967396 17.22° C 78% 1068 hPa 0 mm - - -

* Rain latest hour (hover to see other rain measurements)
** Current wind speed in m/s (hover to see current wind gust speed)